createdAt,value
2022-08-23T00:00:15.121Z,21.08
2022-08-23T00:01:15.069Z,21.04
2022-08-23T00:02:23.169Z,20.95
2022-08-23T00:03:16.150Z,20.91
2022-08-23T00:04:15.017Z,20.98
2022-08-23T00:05:15.016Z,21.01
2022-08-23T00:06:14.991Z,21.02
2022-08-23T00:07:15.004Z,21.06
2022-08-23T00:08:14.962Z,21.05
2022-08-23T00:09:14.952Z,21.11
2022-08-23T00:10:14.950Z,21.11
2022-08-23T00:11:14.926Z,21.11
2022-08-23T00:12:14.917Z,21.06
2022-08-23T00:13:14.912Z,21.02
2022-08-23T00:14:15.151Z,21.02
2022-08-23T00:15:14.891Z,21.05
2022-08-23T00:16:14.932Z,21.08
2022-08-23T00:17:34.398Z,21.08
2022-08-23T00:18:16.032Z,21.01
2022-08-23T00:19:15.113Z,20.96
2022-08-23T00:20:14.888Z,20.99
2022-08-23T00:21:14.833Z,20.98
2022-08-23T00:22:14.800Z,20.98
2022-08-23T00:23:14.778Z,20.96
2022-08-23T00:24:14.750Z,20.98
2022-08-23T00:25:14.803Z,21.01
2022-08-23T00:26:14.733Z,20.96
2022-08-23T00:27:15.102Z,20.96
2022-08-23T00:28:15.038Z,21.02
2022-08-23T00:29:14.699Z,21.06
2022-08-23T00:30:14.684Z,21.05
2022-08-23T00:31:14.673Z,21.06
2022-08-23T00:32:14.656Z,21.05
2022-08-23T00:33:14.678Z,20.95
2022-08-23T00:34:14.630Z,20.90
2022-08-23T00:35:26.209Z,20.87
2022-08-23T00:36:15.626Z,20.89
2022-08-23T00:37:14.586Z,20.93
2022-08-23T00:38:33.988Z,20.98
2022-08-23T00:39:15.558Z,20.99
2022-08-23T00:40:14.701Z,20.96
2022-08-23T00:41:14.555Z,20.90
2022-08-23T00:42:14.523Z,20.87
2022-08-23T00:43:14.542Z,20.89
2022-08-23T00:44:14.517Z,20.89
2022-08-23T00:45:14.543Z,20.93
2022-08-23T00:46:14.819Z,20.93
2022-08-23T00:47:14.462Z,20.86
2022-08-23T00:48:14.452Z,20.80
2022-08-23T00:49:14.462Z,20.77
2022-08-23T00:50:23.571Z,20.81
2022-08-23T00:51:15.449Z,20.86
2022-08-23T00:52:14.397Z,20.91
2022-08-23T00:53:14.430Z,20.90
2022-08-23T00:54:14.362Z,20.87
2022-08-23T00:55:14.432Z,20.86
2022-08-23T00:56:14.346Z,20.90
2022-08-23T00:57:14.331Z,20.90
2022-08-23T00:58:14.314Z,20.95
2022-08-23T00:59:14.331Z,20.90
2022-08-23T01:00:14.340Z,20.77
2022-08-23T01:01:14.422Z,20.76
2022-08-23T01:02:14.268Z,20.80
2022-08-23T01:03:14.247Z,20.83
2022-08-23T01:04:14.235Z,20.86
2022-08-23T01:05:14.240Z,20.86
2022-08-23T01:06:14.211Z,20.86
2022-08-23T01:07:14.225Z,20.86
2022-08-23T01:08:14.189Z,20.83
2022-08-23T01:09:14.197Z,20.71
2022-08-23T01:10:18.164Z,20.65
2022-08-23T01:11:15.142Z,20.71
2022-08-23T01:12:14.195Z,20.68
2022-08-23T01:13:14.150Z,20.64
2022-08-23T01:14:14.156Z,20.68
2022-08-23T01:15:14.115Z,20.74
2022-08-23T01:16:14.098Z,20.77
2022-08-23T01:17:14.064Z,20.69
2022-08-23T01:18:14.053Z,20.68
2022-08-23T01:19:14.050Z,20.68
2022-08-23T01:20:14.348Z,20.68
2022-08-23T01:21:14.034Z,20.66
2022-08-23T01:22:14.023Z,20.65
2022-08-23T01:23:14.018Z,20.66
2022-08-23T01:24:19.111Z,20.62
2022-08-23T01:25:15.005Z,20.61
2022-08-23T01:26:13.948Z,20.56
2022-08-23T01:27:14.249Z,20.56
2022-08-23T01:28:13.955Z,20.54
2022-08-23T01:29:13.930Z,20.56
2022-08-23T01:30:13.973Z,20.59
2022-08-23T01:31:13.885Z,20.62
2022-08-23T01:32:13.979Z,20.64
2022-08-23T01:33:13.857Z,20.69
2022-08-23T01:34:13.845Z,20.71
2022-08-23T01:35:13.898Z,20.72
2022-08-23T01:36:13.815Z,20.71
2022-08-23T01:37:13.858Z,20.72
2022-08-23T01:38:13.784Z,20.69
2022-08-23T01:39:13.798Z,20.69
2022-08-23T01:40:13.935Z,20.66
2022-08-23T01:41:13.748Z,20.65
2022-08-23T01:42:13.740Z,20.62
2022-08-23T01:43:13.725Z,20.56
2022-08-23T01:44:13.752Z,20.51
2022-08-23T01:45:13.906Z,20.56
2022-08-23T01:46:13.693Z,20.59
2022-08-23T01:47:13.694Z,20.66
2022-08-23T01:48:13.656Z,20.64
2022-08-23T01:49:13.682Z,20.65
2022-08-23T01:50:13.635Z,20.62
2022-08-23T01:51:13.626Z,20.51
2022-08-23T01:52:14.304Z,20.39
2022-08-23T01:53:13.603Z,20.41
2022-08-23T01:54:13.586Z,20.38
2022-08-23T01:55:13.786Z,20.35
2022-08-23T01:56:13.602Z,20.41
2022-08-23T01:57:13.575Z,20.42
2022-08-23T01:58:13.533Z,20.47
2022-08-23T01:59:13.557Z,20.51
2022-08-23T02:00:13.598Z,20.53
2022-08-23T02:01:13.533Z,20.50
2022-08-23T02:02:13.478Z,20.50
2022-08-23T02:03:13.463Z,20.51
2022-08-23T02:04:13.494Z,20.53
2022-08-23T02:05:13.447Z,20.43
2022-08-23T02:06:14.427Z,20.39
2022-08-23T02:07:13.422Z,20.35
2022-08-23T02:08:13.404Z,20.31
2022-08-23T02:09:17.382Z,20.38
2022-08-23T02:10:13.383Z,20.42
2022-08-23T02:11:13.353Z,20.38
2022-08-23T02:12:13.356Z,20.35
2022-08-23T02:13:13.337Z,20.38
2022-08-23T02:14:13.346Z,20.31
2022-08-23T02:15:13.322Z,20.27
2022-08-23T02:16:14.950Z,20.30
2022-08-23T02:17:13.319Z,20.34
2022-08-23T02:18:13.464Z,20.35
2022-08-23T02:19:13.272Z,20.34
2022-08-23T02:20:13.236Z,20.34
2022-08-23T02:21:13.248Z,20.33
2022-08-23T02:22:13.276Z,20.31
2022-08-23T02:23:13.212Z,20.31
2022-08-23T02:24:13.201Z,20.31
2022-08-23T02:25:13.163Z,20.27
2022-08-23T02:26:13.157Z,20.30
2022-08-23T02:27:13.173Z,20.31
2022-08-23T02:28:13.160Z,20.33
2022-08-23T02:29:13.181Z,20.27
2022-08-23T02:30:16.898Z,20.24
2022-08-23T02:31:13.218Z,20.20
2022-08-23T02:32:13.124Z,20.21
2022-08-23T02:33:13.056Z,20.25
2022-08-23T02:36:36.358Z,20.34
2022-08-23T02:37:36.405Z,20.33
2022-08-23T02:38:36.324Z,20.34
2022-08-23T02:39:36.339Z,20.35
2022-08-23T02:40:38.184Z,20.38
2022-08-23T02:41:36.339Z,20.31
2022-08-23T02:42:36.310Z,20.31
2022-08-23T02:43:39.394Z,20.28
2022-08-23T02:44:36.896Z,20.30
2022-08-23T02:45:36.267Z,20.30
2022-08-23T02:46:36.245Z,20.23
2022-08-23T02:47:36.211Z,20.16
2022-08-23T02:48:36.214Z,20.13
2022-08-23T02:49:36.212Z,20.10
2022-08-23T02:50:36.192Z,20.10
2022-08-23T02:51:36.151Z,20.15
2022-08-23T02:52:36.374Z,20.18
2022-08-23T02:53:36.171Z,20.21
2022-08-23T02:54:36.133Z,20.21
2022-08-23T02:55:36.110Z,20.15
2022-08-23T02:56:36.104Z,20.16
2022-08-23T02:57:36.078Z,20.18
2022-08-23T02:58:36.070Z,20.12
2022-08-23T02:59:36.069Z,20.12
2022-08-23T03:00:36.041Z,20.16
2022-08-23T03:01:36.060Z,20.15
2022-08-23T03:02:36.078Z,20.16
2022-08-23T03:03:35.995Z,20.13
2022-08-23T03:04:35.997Z,20.12
2022-08-23T03:05:36.044Z,20.16
2022-08-23T03:06:35.979Z,20.15
2022-08-23T03:07:35.934Z,20.13
2022-08-23T03:08:35.957Z,20.12
2022-08-23T03:09:35.947Z,20.06
2022-08-23T03:10:35.900Z,20.08
2022-08-23T03:11:35.894Z,20.06
2022-08-23T03:12:35.964Z,20.06
2022-08-23T03:13:36.000Z,19.98
2022-08-23T03:14:35.924Z,19.95
2022-08-23T03:15:39.721Z,19.91
2022-08-23T03:16:35.869Z,19.91
2022-08-23T03:17:35.832Z,19.95
2022-08-23T03:18:35.824Z,19.91
2022-08-23T03:19:35.798Z,19.94
2022-08-23T03:20:35.774Z,19.98
2022-08-23T03:21:35.766Z,20.00
2022-08-23T03:22:35.749Z,20.05
2022-08-23T03:23:35.751Z,19.97
2022-08-23T03:24:35.718Z,20.00
2022-08-23T03:25:39.785Z,20.03
2022-08-23T03:26:35.766Z,20.06
2022-08-23T03:27:38.345Z,20.08
2022-08-23T03:28:36.727Z,20.12
2022-08-23T03:29:35.725Z,20.09
2022-08-23T03:30:35.653Z,20.08
2022-08-23T03:31:35.604Z,20.10
2022-08-23T03:32:35.944Z,20.13
2022-08-23T03:33:35.608Z,20.10
2022-08-23T03:34:35.833Z,20.10
2022-08-23T03:35:35.603Z,19.98
2022-08-23T03:36:35.534Z,19.98
2022-08-23T03:37:35.647Z,19.95
2022-08-23T03:38:36.506Z,19.98
2022-08-23T03:39:35.505Z,19.98
2022-08-23T03:40:35.528Z,19.98
2022-08-23T03:41:35.491Z,19.95
2022-08-23T03:42:35.492Z,19.97
2022-08-23T03:43:36.127Z,19.94
2022-08-23T03:44:35.434Z,19.91
2022-08-23T03:45:35.475Z,19.90
2022-08-23T03:46:35.417Z,19.90
2022-08-23T03:47:35.386Z,19.84
2022-08-23T03:48:35.367Z,19.87
2022-08-23T03:49:35.364Z,19.90
2022-08-23T03:50:35.361Z,19.93
2022-08-23T03:51:35.336Z,19.93
2022-08-23T03:52:35.307Z,19.94
2022-08-23T03:53:35.325Z,19.95
2022-08-23T03:54:35.294Z,19.90
2022-08-23T03:55:38.551Z,19.88
2022-08-23T03:56:36.390Z,19.91
2022-08-23T03:57:35.297Z,19.93
2022-08-23T03:58:35.255Z,19.90
2022-08-23T03:59:35.226Z,19.84
2022-08-23T04:00:35.304Z,19.84
2022-08-23T04:01:35.234Z,19.83
2022-08-23T04:02:35.192Z,19.80
2022-08-23T04:03:35.182Z,19.75
2022-08-23T04:04:35.166Z,19.75
2022-08-23T04:05:35.199Z,19.76
2022-08-23T04:06:35.140Z,19.76
2022-08-23T04:07:35.122Z,19.78
2022-08-23T04:08:35.140Z,19.79
2022-08-23T04:09:35.180Z,19.84
2022-08-23T04:10:35.121Z,19.84
2022-08-23T04:11:35.065Z,19.80
2022-08-23T04:12:35.051Z,19.87
2022-08-23T04:13:35.059Z,19.88
2022-08-23T04:14:35.031Z,19.87
2022-08-23T04:15:35.046Z,19.80
2022-08-23T04:16:35.022Z,19.79
2022-08-23T04:17:34.984Z,19.78
2022-08-23T04:18:34.984Z,19.70
2022-08-23T04:19:34.988Z,19.72
2022-08-23T04:20:34.971Z,19.75
2022-08-23T04:21:34.931Z,19.68
2022-08-23T04:22:35.182Z,19.69
2022-08-23T04:23:34.936Z,19.69
2022-08-23T04:24:34.898Z,19.69
2022-08-23T04:25:35.866Z,19.70
2022-08-23T04:26:34.886Z,19.75
2022-08-23T04:27:35.211Z,19.78
2022-08-23T04:28:34.857Z,19.79
2022-08-23T04:29:34.845Z,19.80
2022-08-23T04:30:34.840Z,19.72
2022-08-23T04:31:34.918Z,19.68
2022-08-23T04:32:34.785Z,19.65
2022-08-23T04:33:34.781Z,19.60
2022-08-23T04:34:34.820Z,19.57
2022-08-23T04:35:34.779Z,19.58
2022-08-23T04:36:34.773Z,19.60
2022-08-23T04:37:34.741Z,19.61
2022-08-23T04:38:34.711Z,19.65
2022-08-23T04:39:34.726Z,19.61
2022-08-23T04:40:34.685Z,19.68
2022-08-23T04:41:34.677Z,19.69
2022-08-23T04:42:34.656Z,19.69
2022-08-23T04:43:34.981Z,19.61
2022-08-23T04:44:34.687Z,19.58
2022-08-23T04:45:34.640Z,19.60
2022-08-23T04:46:34.604Z,19.60
2022-08-23T04:47:34.611Z,19.57
2022-08-23T04:48:34.584Z,19.61
2022-08-23T04:49:34.590Z,19.68
2022-08-23T04:50:34.574Z,19.68
2022-08-23T04:51:34.544Z,19.65
2022-08-23T04:52:34.539Z,19.66
2022-08-23T04:53:34.574Z,19.68
2022-08-23T04:54:34.502Z,19.72
2022-08-23T04:55:36.385Z,19.68
2022-08-23T04:56:34.472Z,19.69
2022-08-23T04:57:34.856Z,19.66
2022-08-23T04:58:34.453Z,19.68
2022-08-23T04:59:34.494Z,19.66
2022-08-23T05:00:34.485Z,19.65
2022-08-23T05:01:34.420Z,19.61
2022-08-23T05:02:34.394Z,19.61
2022-08-23T05:03:34.409Z,19.63
2022-08-23T05:04:34.371Z,19.66
2022-08-23T05:05:34.404Z,19.70
2022-08-23T05:06:34.373Z,19.75
2022-08-23T05:07:41.664Z,19.78
2022-08-23T05:08:35.320Z,19.80
2022-08-23T05:09:34.342Z,19.86
2022-08-23T05:10:34.447Z,19.91
2022-08-23T05:11:34.281Z,19.97
2022-08-23T05:12:34.256Z,19.94
2022-08-23T05:13:34.810Z,19.79
2022-08-23T05:14:34.518Z,19.72
2022-08-23T05:15:34.265Z,19.73
2022-08-23T05:16:34.297Z,19.79
2022-08-23T05:17:34.230Z,19.80
2022-08-23T05:18:34.191Z,19.88
2022-08-23T05:19:34.173Z,19.88
2022-08-23T05:20:34.229Z,19.90
2022-08-23T05:21:34.145Z,19.84
2022-08-23T05:22:34.180Z,19.83
2022-08-23T05:23:34.132Z,19.84
2022-08-23T05:24:34.100Z,19.83
2022-08-23T05:25:34.150Z,19.83
2022-08-23T05:26:34.087Z,19.83
2022-08-23T05:27:34.094Z,19.84
2022-08-23T05:28:34.060Z,19.84
2022-08-23T05:29:34.041Z,19.88
2022-08-23T05:30:34.074Z,19.91
2022-08-23T05:31:34.050Z,19.97
2022-08-23T05:32:33.999Z,20.05
2022-08-23T05:33:34.019Z,20.06
2022-08-23T05:34:34.274Z,20.06
2022-08-23T05:35:34.460Z,19.97
2022-08-23T05:36:33.975Z,19.94
2022-08-23T05:37:33.930Z,19.94
2022-08-23T05:38:33.964Z,19.97
2022-08-23T05:39:36.691Z,19.98
2022-08-23T05:40:33.952Z,20.02
2022-08-23T05:41:38.556Z,20.05
2022-08-23T05:42:33.865Z,20.03
2022-08-23T05:43:33.875Z,19.98
2022-08-23T05:44:36.145Z,19.95
2022-08-23T05:45:33.916Z,19.97
2022-08-23T05:46:33.821Z,20.00
2022-08-23T05:47:34.016Z,20.06
2022-08-23T05:48:33.798Z,20.13
2022-08-23T05:49:34.087Z,20.15
2022-08-23T05:50:33.787Z,20.15
2022-08-23T05:51:33.741Z,20.13
2022-08-23T05:52:33.752Z,20.08
2022-08-23T05:53:33.763Z,20.05
2022-08-23T05:54:33.758Z,20.03
2022-08-23T05:55:35.091Z,20.08
2022-08-23T05:56:33.743Z,20.16
2022-08-23T05:57:36.373Z,20.21
2022-08-23T05:58:33.673Z,20.25
2022-08-23T05:59:33.642Z,20.23
2022-08-23T06:00:40.565Z,20.18
2022-08-23T06:01:34.611Z,20.16
2022-08-23T06:02:33.622Z,20.18
2022-08-23T06:03:33.623Z,20.16
2022-08-23T06:04:33.576Z,20.20
2022-08-23T06:05:33.822Z,20.10
2022-08-23T06:06:37.288Z,20.09
2022-08-23T06:07:33.559Z,20.10
2022-08-23T06:08:33.510Z,20.18
2022-08-23T06:09:33.511Z,20.20
2022-08-23T06:10:33.932Z,20.24
2022-08-23T06:11:33.474Z,20.31
2022-08-23T06:12:33.480Z,20.24
2022-08-23T06:13:33.480Z,20.25
2022-08-23T06:14:33.517Z,20.24
2022-08-23T06:15:33.458Z,20.30
2022-08-23T06:16:33.425Z,20.38
2022-08-23T06:17:33.396Z,20.43
2022-08-23T06:18:33.377Z,20.46
2022-08-23T06:19:33.396Z,20.50
2022-08-23T06:20:33.436Z,20.50
2022-08-23T06:21:33.350Z,20.46
2022-08-23T06:22:33.345Z,20.43
2022-08-23T06:23:33.358Z,20.41
2022-08-23T06:24:33.341Z,20.42
2022-08-23T06:25:37.350Z,20.47
2022-08-23T06:26:33.283Z,20.49
2022-08-23T06:27:33.265Z,20.50
2022-08-23T06:28:33.276Z,20.51
2022-08-23T06:29:34.309Z,20.51
2022-08-23T06:30:35.261Z,20.50
2022-08-23T06:31:33.254Z,20.51
2022-08-23T06:32:33.268Z,20.58
2022-08-23T06:33:33.212Z,20.53
2022-08-23T06:34:33.209Z,20.58
2022-08-23T06:35:39.039Z,20.54
2022-08-23T06:36:34.154Z,20.54
2022-08-23T06:37:33.132Z,20.54
2022-08-23T06:38:33.143Z,20.62
2022-08-23T06:39:36.904Z,20.71
2022-08-23T06:40:33.127Z,20.83
2022-08-23T06:41:33.078Z,20.83
2022-08-23T06:42:38.313Z,20.79
2022-08-23T06:43:34.057Z,20.81
2022-08-23T06:44:33.040Z,20.90
2022-08-23T06:45:34.892Z,21.01
2022-08-23T06:46:33.178Z,21.04
2022-08-23T06:47:33.001Z,21.06
2022-08-23T06:48:33.011Z,21.04
2022-08-23T06:49:32.980Z,20.96
2022-08-23T06:50:32.989Z,21.01
2022-08-23T06:51:32.984Z,21.05
2022-08-23T06:52:32.959Z,21.08
2022-08-23T06:53:33.232Z,21.13
2022-08-23T06:54:32.928Z,21.14
2022-08-23T06:55:32.924Z,21.19
2022-08-23T06:56:32.902Z,21.24
2022-08-23T06:57:32.920Z,21.29
2022-08-23T06:58:32.851Z,21.32
2022-08-23T06:59:32.885Z,21.39
2022-08-23T07:00:32.958Z,21.48
2022-08-23T07:01:48.250Z,21.54
2022-08-23T07:02:33.850Z,21.54
2022-08-23T07:03:32.793Z,21.56
2022-08-23T07:04:32.844Z,21.63
2022-08-23T07:05:32.882Z,21.66
2022-08-23T07:06:32.790Z,21.67
2022-08-23T07:07:39.782Z,21.72
2022-08-23T07:08:33.726Z,21.71
2022-08-23T07:09:32.761Z,21.72
2022-08-23T07:10:32.708Z,21.75
2022-08-23T07:11:32.697Z,21.75
2022-08-23T07:12:32.689Z,21.81
2022-08-23T07:13:32.724Z,21.81
2022-08-23T07:14:32.650Z,21.90
2022-08-23T07:15:32.641Z,21.90
2022-08-23T07:16:33.000Z,21.91
2022-08-23T07:17:32.606Z,21.94
2022-08-23T07:18:32.721Z,21.92
2022-08-23T07:19:32.689Z,21.92
2022-08-23T07:20:32.590Z,21.94
2022-08-23T07:21:32.555Z,21.98
2022-08-23T07:22:32.569Z,21.98
2022-08-23T07:23:32.525Z,22.02
2022-08-23T07:24:33.813Z,22.07
2022-08-23T07:25:32.563Z,22.01
2022-08-23T07:26:32.519Z,21.95
2022-08-23T07:27:36.273Z,21.91
2022-08-23T07:28:32.475Z,21.91
2022-08-23T07:29:32.438Z,21.95
2022-08-23T07:30:32.487Z,21.99
2022-08-23T07:31:32.453Z,22.07
2022-08-23T07:32:32.430Z,22.13
2022-08-23T07:33:32.393Z,22.17
2022-08-23T07:34:32.418Z,22.20
2022-08-23T07:35:35.664Z,22.27
2022-08-23T07:36:33.403Z,22.28
2022-08-23T07:37:32.337Z,22.29
2022-08-23T07:38:32.343Z,22.27
2022-08-23T07:39:32.308Z,22.32
2022-08-23T07:40:35.618Z,22.31
2022-08-23T07:41:33.277Z,22.32
2022-08-23T07:42:32.288Z,22.31
2022-08-23T07:43:32.256Z,22.29
2022-08-23T07:44:32.291Z,22.28
2022-08-23T07:45:34.040Z,22.28
2022-08-23T07:46:32.360Z,22.32
2022-08-23T07:47:32.196Z,22.34
2022-08-23T07:48:52.959Z,22.32
2022-08-23T07:49:33.169Z,22.37
2022-08-23T07:50:32.199Z,22.46
2022-08-23T07:51:32.144Z,22.50
2022-08-23T07:52:32.148Z,22.56
2022-08-23T07:53:37.831Z,22.56
2022-08-23T07:54:33.122Z,22.54
2022-08-23T07:55:32.183Z,22.59
2022-08-23T07:56:32.082Z,22.64
2022-08-23T07:57:32.091Z,22.65
2022-08-23T07:58:32.062Z,22.72
2022-08-23T07:59:34.639Z,22.75
2022-08-23T08:00:32.048Z,22.78
2022-08-23T08:01:32.173Z,22.82
2022-08-23T08:02:32.095Z,22.83
2022-08-23T08:03:31.980Z,22.90
2022-08-23T08:04:31.975Z,22.90
2022-08-23T08:05:31.974Z,22.86
2022-08-23T08:06:32.037Z,22.87
2022-08-23T08:07:31.936Z,22.86
2022-08-23T08:08:32.970Z,22.86
2022-08-23T08:09:31.934Z,22.92
2022-08-23T08:10:31.962Z,22.97
2022-08-23T08:11:34.892Z,22.97
2022-08-23T08:12:31.867Z,23.08
2022-08-23T08:13:31.875Z,23.20
2022-08-23T08:14:31.850Z,23.26
2022-08-23T08:15:31.860Z,23.24
2022-08-23T08:16:31.876Z,23.27
2022-08-23T08:17:31.834Z,23.35
2022-08-23T08:18:31.814Z,23.43
2022-08-23T08:19:31.803Z,23.47
2022-08-23T08:20:32.409Z,23.49
2022-08-23T08:21:31.756Z,23.46
2022-08-23T08:22:31.761Z,23.45
2022-08-23T08:23:31.727Z,23.46
2022-08-23T08:24:31.747Z,23.53
2022-08-23T08:25:31.709Z,23.50
2022-08-23T08:26:31.701Z,23.57
2022-08-23T08:27:31.673Z,23.50
2022-08-23T08:28:31.704Z,23.52
2022-08-23T08:29:31.655Z,23.49
2022-08-23T08:30:35.595Z,23.50
2022-08-23T08:31:31.724Z,23.46
2022-08-23T08:32:31.704Z,23.55
2022-08-23T08:33:31.624Z,23.68
2022-08-23T08:34:31.580Z,23.82
2022-08-23T08:35:31.666Z,23.95
2022-08-23T08:36:31.591Z,23.92
2022-08-23T08:37:31.570Z,24.00
2022-08-23T08:38:31.530Z,24.07
2022-08-23T08:39:31.596Z,24.02
2022-08-23T08:40:31.541Z,24.04
2022-08-23T08:41:31.510Z,23.95
2022-08-23T08:42:31.528Z,23.97
2022-08-23T08:43:31.459Z,23.98
2022-08-23T08:44:31.441Z,24.05
2022-08-23T08:45:31.475Z,24.10
2022-08-23T08:46:31.503Z,24.19
2022-08-23T08:47:31.425Z,24.22
2022-08-23T08:48:31.410Z,24.22
2022-08-23T08:49:31.990Z,24.24
2022-08-23T08:50:31.421Z,24.34
2022-08-23T08:51:31.372Z,24.35
2022-08-23T08:52:32.439Z,24.49
2022-08-23T08:53:31.329Z,24.67
2022-08-23T08:54:31.345Z,24.90
2022-08-23T08:55:31.295Z,25.07
2022-08-23T08:56:32.628Z,25.06
2022-08-23T08:57:31.278Z,25.07
2022-08-23T08:58:31.319Z,25.00
2022-08-23T08:59:31.244Z,24.87
2022-08-23T09:00:31.248Z,24.90
2022-08-23T09:01:31.287Z,24.75
2022-08-23T09:02:32.471Z,24.76
2022-08-23T09:03:31.238Z,24.83
2022-08-23T09:04:31.215Z,24.63
2022-08-23T09:05:31.187Z,24.67
2022-08-23T09:06:31.258Z,24.61
2022-08-23T09:07:31.503Z,24.59
2022-08-23T09:08:31.183Z,24.71
2022-08-23T09:09:31.132Z,24.98
2022-08-23T09:10:31.117Z,25.19
2022-08-23T09:11:31.115Z,25.24
2022-08-23T09:12:31.088Z,25.28
2022-08-23T09:13:31.080Z,25.31
2022-08-23T09:14:31.774Z,25.37
2022-08-23T09:15:31.055Z,25.16
2022-08-23T09:16:31.099Z,25.22
2022-08-23T09:17:31.087Z,25.38
2022-08-23T09:18:31.026Z,25.46
2022-08-23T09:19:31.001Z,25.49
2022-08-23T09:20:33.210Z,25.61
2022-08-23T09:21:31.019Z,25.74
2022-08-23T09:22:30.950Z,25.80
2022-08-23T09:23:30.941Z,25.83
2022-08-23T09:24:30.917Z,26.01
2022-08-23T09:25:30.956Z,26.11
2022-08-23T09:26:30.961Z,26.20
2022-08-23T09:27:30.879Z,26.09
2022-08-23T09:28:30.927Z,26.11
2022-08-23T09:29:30.873Z,26.29
2022-08-23T09:30:30.859Z,26.21
2022-08-23T09:31:34.151Z,26.22
2022-08-23T09:32:31.835Z,26.27
2022-08-23T09:33:30.816Z,26.27
2022-08-23T09:34:30.787Z,26.36
2022-08-23T09:35:30.819Z,26.46
2022-08-23T09:36:30.775Z,26.52
2022-08-23T09:37:30.778Z,26.58
2022-08-23T09:38:30.774Z,26.28
2022-08-23T09:39:31.299Z,26.22
2022-08-23T09:40:31.005Z,26.24
2022-08-23T09:41:30.758Z,26.35
2022-08-23T09:42:30.710Z,26.24
2022-08-23T09:43:30.735Z,26.24
2022-08-23T09:44:30.680Z,26.39
2022-08-23T09:45:35.157Z,26.50
2022-08-23T09:46:32.390Z,26.49
2022-08-23T09:47:30.651Z,26.50
2022-08-23T09:48:31.211Z,26.46
2022-08-23T09:49:30.606Z,26.49
2022-08-23T09:50:30.603Z,26.64
2022-08-23T09:51:30.613Z,26.74
2022-08-23T09:52:30.555Z,26.77
2022-08-23T09:53:30.604Z,26.92
2022-08-23T09:54:30.564Z,27.17
2022-08-23T09:55:30.529Z,27.20
2022-08-23T09:56:30.546Z,27.04
2022-08-23T09:57:30.492Z,26.87
2022-08-23T09:58:30.488Z,26.92
2022-08-23T09:59:30.501Z,26.84
2022-08-23T10:00:30.689Z,26.92
2022-08-23T10:01:31.846Z,26.94
2022-08-23T10:02:30.447Z,26.96
2022-08-23T10:03:30.415Z,26.94
2022-08-23T10:04:30.520Z,27.01
2022-08-23T10:05:30.385Z,27.13
2022-08-23T10:06:31.168Z,27.39
2022-08-23T10:07:30.371Z,27.53
2022-08-23T10:08:30.376Z,27.69
2022-08-23T10:09:30.340Z,27.41
2022-08-23T10:10:30.335Z,27.35
2022-08-23T10:11:30.375Z,27.36
2022-08-23T10:12:30.292Z,27.43
2022-08-23T10:13:30.298Z,27.50
2022-08-23T10:14:30.728Z,27.64
2022-08-23T10:15:33.099Z,27.73
2022-08-23T10:16:31.295Z,27.64
2022-08-23T10:17:30.225Z,27.19
2022-08-23T10:18:30.239Z,27.14
2022-08-23T10:19:30.462Z,27.33
2022-08-23T10:20:30.290Z,27.36
2022-08-23T10:21:30.934Z,27.59
2022-08-23T10:22:30.248Z,27.85
2022-08-23T10:23:30.218Z,27.92
2022-08-23T10:24:30.147Z,28.13
2022-08-23T10:25:30.161Z,28.23
2022-08-23T10:26:30.120Z,28.07
2022-08-23T10:27:30.125Z,28.07
2022-08-23T10:28:30.152Z,28.17
2022-08-23T10:29:31.073Z,28.21
2022-08-23T10:30:30.075Z,28.09
2022-08-23T10:31:30.148Z,27.94
2022-08-23T10:32:30.053Z,27.82
2022-08-23T10:33:30.037Z,27.80
2022-08-23T10:34:30.133Z,27.85
2022-08-23T10:35:30.022Z,27.99
2022-08-23T10:36:29.997Z,28.01
2022-08-23T10:37:29.989Z,28.11
2022-08-23T10:38:30.043Z,28.29
2022-08-23T10:39:29.962Z,28.10
2022-08-23T10:40:29.987Z,27.92
2022-08-23T10:41:29.924Z,27.92
2022-08-23T10:42:29.944Z,27.99
2022-08-23T10:43:29.888Z,28.28
2022-08-23T10:44:29.941Z,28.58
2022-08-23T10:45:29.897Z,28.70
2022-08-23T10:46:29.901Z,28.78
2022-08-23T10:47:29.879Z,28.51
2022-08-23T10:48:29.901Z,28.31
2022-08-23T10:49:29.825Z,28.25
2022-08-23T10:50:29.805Z,28.38
2022-08-23T10:51:31.796Z,28.54
2022-08-23T10:52:29.803Z,28.84
2022-08-23T10:53:29.779Z,28.91
2022-08-23T10:54:29.748Z,28.81
2022-08-23T10:55:29.794Z,28.84
2022-08-23T10:56:29.743Z,28.82
2022-08-23T10:57:29.708Z,28.65
2022-08-23T10:58:30.852Z,28.69
2022-08-23T10:59:29.692Z,28.62
2022-08-23T11:00:30.370Z,28.68
2022-08-23T11:01:29.701Z,28.87
2022-08-23T11:02:29.734Z,28.80
2022-08-23T11:03:29.647Z,28.90
2022-08-23T11:04:29.636Z,28.73
2022-08-23T11:05:29.773Z,28.65
2022-08-23T11:06:29.592Z,28.65
2022-08-23T11:07:29.589Z,28.72
2022-08-23T11:08:29.586Z,28.77
2022-08-23T11:09:29.575Z,28.82
2022-08-23T11:10:29.572Z,28.46
2022-08-23T11:11:29.554Z,28.53
2022-08-23T11:12:29.546Z,28.44
2022-08-23T11:13:29.511Z,28.41
2022-08-23T11:14:29.643Z,28.32
2022-08-23T11:15:29.565Z,28.48
2022-08-23T11:16:29.475Z,28.73
2022-08-23T11:17:29.479Z,28.96
2022-08-23T11:18:33.110Z,29.00
2022-08-23T11:19:29.426Z,28.84
2022-08-23T11:20:29.486Z,28.88
2022-08-23T11:21:29.417Z,29.04
2022-08-23T11:22:29.425Z,29.01
2022-08-23T11:23:29.376Z,29.16
2022-08-23T11:24:29.375Z,29.29
2022-08-23T11:25:29.352Z,29.23
2022-08-23T11:26:29.372Z,29.31
2022-08-23T11:27:29.355Z,29.34
2022-08-23T11:28:30.554Z,29.53
2022-08-23T11:29:29.308Z,29.63
2022-08-23T11:30:29.305Z,29.79
2022-08-23T11:31:29.318Z,29.93
2022-08-23T11:32:30.149Z,29.78
2022-08-23T11:33:29.253Z,29.47
2022-08-23T11:34:29.548Z,29.44
2022-08-23T11:35:29.231Z,29.43
2022-08-23T11:36:29.251Z,29.47
2022-08-23T11:37:29.215Z,29.45
2022-08-23T11:38:29.191Z,29.23
2022-08-23T11:39:29.192Z,29.01
2022-08-23T11:40:29.185Z,29.15
2022-08-23T11:41:30.109Z,29.38
2022-08-23T11:42:29.129Z,29.57
2022-08-23T11:43:29.164Z,29.66
2022-08-23T11:44:30.172Z,29.92
2022-08-23T11:45:29.437Z,29.94
2022-08-23T11:46:38.282Z,30.08
2022-08-23T11:47:30.984Z,30.21
2022-08-23T11:48:33.743Z,30.49
2022-08-23T11:49:29.953Z,30.62
2022-08-23T11:50:29.054Z,30.57
2022-08-23T11:51:29.040Z,30.75
2022-08-23T11:52:29.049Z,30.80
2022-08-23T11:53:29.004Z,30.71
2022-08-23T11:54:29.012Z,30.64
2022-08-23T11:55:29.078Z,30.80
2022-08-23T11:56:28.955Z,30.80
2022-08-23T11:57:28.987Z,30.36
2022-08-23T11:58:29.697Z,30.24
2022-08-23T11:59:29.611Z,30.49
2022-08-23T12:00:29.725Z,30.62
2022-08-23T12:01:28.917Z,30.74
2022-08-23T12:02:29.001Z,30.84
2022-08-23T12:03:29.047Z,30.81
2022-08-23T12:04:28.876Z,30.78
2022-08-23T12:05:28.888Z,30.81
2022-08-23T12:06:28.886Z,30.91
2022-08-23T12:07:28.884Z,30.91
2022-08-23T12:08:28.824Z,30.93
2022-08-23T12:09:28.803Z,30.81
2022-08-23T12:10:28.808Z,30.71
2022-08-23T12:11:28.785Z,30.54
2022-08-23T12:12:28.764Z,30.72
2022-08-23T12:13:28.757Z,30.81
2022-08-23T12:14:28.735Z,30.71
2022-08-23T12:15:28.770Z,30.81
2022-08-23T12:16:28.878Z,30.76
2022-08-23T12:17:29.742Z,30.94
2022-08-23T12:18:29.724Z,30.98
2022-08-23T12:19:28.680Z,31.18
2022-08-23T12:20:28.681Z,31.24
2022-08-23T12:21:28.669Z,31.08
2022-08-23T12:22:28.720Z,31.11
2022-08-23T12:23:28.660Z,30.96
2022-08-23T12:24:28.642Z,30.91
2022-08-23T12:25:28.679Z,31.23
2022-08-23T12:26:28.645Z,31.54
2022-08-23T12:27:28.654Z,31.60
2022-08-23T12:28:28.572Z,31.72
2022-08-23T12:29:28.563Z,31.49
2022-08-23T12:30:28.677Z,31.48
2022-08-23T12:31:28.608Z,31.30
2022-08-23T12:32:28.757Z,31.53
2022-08-23T12:33:28.556Z,31.79
2022-08-23T12:34:28.528Z,31.80
2022-08-23T12:35:28.506Z,31.84
2022-08-23T12:36:28.465Z,31.92
2022-08-23T12:37:28.514Z,31.73
2022-08-23T12:38:28.446Z,31.77
2022-08-23T12:39:28.461Z,32.11
2022-08-23T12:40:28.440Z,32.25
2022-08-23T12:41:28.412Z,32.25
2022-08-23T12:42:28.436Z,32.49
2022-08-23T12:43:28.452Z,32.35
2022-08-23T12:44:28.389Z,32.35
2022-08-23T12:45:28.397Z,32.33
2022-08-23T12:46:30.201Z,32.58
2022-08-23T12:47:28.646Z,32.76
2022-08-23T12:48:28.358Z,32.71
2022-08-23T12:49:28.354Z,32.66
2022-08-23T12:50:32.915Z,32.42
2022-08-23T12:51:28.298Z,32.02
2022-08-23T12:52:28.328Z,31.99
2022-08-23T12:53:28.278Z,31.87
2022-08-23T12:54:28.260Z,32.24